Rio Rancho, NM

8:28 AM MDT on September 01, 2014 (GMT -0600)
Western Hills | Change Station
CLOSE
Current Station
Personal Weather Station
Location: Rio Rancho, NM
Elevation: 5486 ft
Nearby Weather Stations

Elev 5486 ft 35.26 °N, 106.69 °W | Updated 1 second ago

Clear
Clear
73.9 °F
Feels Like 77 °F
N
2.2
Wind Variable Wind from South
Gusts 3.8 mph

Today
High -- | Low -- °F
--% Chance of Precip.
Yesterday
High -- | Low -- °F
Precip. -- in
6:39 AM 7:33 PM
Waxing Crescent, 41% visible
Pressure 30.16 in
Visibility 10.0 miles
Clouds Few 15000 ft
Heat Index 77 °F
Dew Point 45 °F
Humidity 35%
Rainfall 0.00 in
Snow Depth Not available.
UV 1 out of 12
Pollen 8.90 out of 12
Air Quality Not available.
Flu Activity Not available.
METAR KAEG 011348Z 00000KT 10SM FEW150 18/05 A3016

More Conditions Fewer Conditions

Pressure 30.16 in
Visibility 10.0 miles
Clouds Few 15000 ft
Heat Index 77 °F
Dew Point 45 °F
Humidity 35%
Rainfall 0.00 in
Snow Depth Not available.
UV 1 out of 12
Pollen 8.90 out of 12
Air Quality Not available.
Flu Activity Not available.
METAR KAEG 011348Z 00000KT 10SM FEW150 18/05 A3016

More Conditions Fewer Conditions

10-Day Weather Forecast

Almanac

Astronomy

Sep. 01, 2014 Rise Set
Actual Time 6:39 AM MDT 7:33 PM MDT
Civil Twilight 6:13 AM MDT 7:59 PM MDT
Nautical Twilight 5:42 AM MDT 8:30 PM MDT
Astronomical Twilight 5:10 AM MDT 9:01 PM MDT
Moon 1:12 PM MDT 11:52 PM MDT
Length of Visible Light 13h 46m
Length of Day
12h 54m
Tomorrow will be 2m 8s shorter.
Waxing Crescent, 41% of the Moon is Illuminated
Today
Waxing Crescent
Sep 2
First Quarter
Sep 8
Full
Sep 15
Last Quarter
Sep 24
New

Today's Extremes

State Highs State Lows

Community

WunderPhotos

Upload Photos

1,749,249 photos uploaded!

Nearby

Snow Depth

Station Depth Elevation
Quemazon 1 in 9500 ft
Senorita Divide #2 0 in 8600 ft
Santa Fe 1 in 11445 ft
Wesner Springs 2 in 11120 ft
Rice Park 0 in 8460 ft

Earthquake Activity

City Distance Mag. Time & Date
Trinidad, Colorado 159 miles 2.7 4:20 AM MDT
2014-08-31
Minimum magnitude displayed is 2.5.

Coastal Water Temperatures

Place Temperature
No Stations Reporting

Nearby Weather Stations